Canton Center, Connecticut
Current Conditions -  °F | °C
As of 11:51 AM on Saturday 25 Oct 2014 (Local Time) from KBDL Reporting Station
Few Clouds Few Clouds  
Wind Chill: 18°   Ceiling: Unl
Heat Index: 18°   Visibility: 10mi
Dew Point:   Wind: 10mph
Humidity: 40%   Direction: 270°W
Pressure: 29.74"   Gusts: NA
Location:  41.87°N, 72.91°W
Report Text: KBDL 251551Z 27009KT 10SM FEW200 FEW250 18/04 A2974 RMK AO2 SLP071 T01780039
Loading
Personal Weather Stations






























Interactive Weather Map
Tropical Storm Tracking
New forecast layout! Learn more

10-Day Weather Forecast

Advertisements
Track Severe Weather on mobile